createdAt,value
2022-10-18T00:00:07.274Z,100.00
2022-10-18T00:02:54.186Z,100.00
2022-10-18T00:05:20.965Z,100.00
2022-10-18T00:07:47.916Z,100.00
2022-10-18T00:10:14.859Z,100.00
2022-10-18T00:12:41.874Z,100.00
2022-10-18T00:15:10.335Z,100.00
2022-10-18T00:17:38.908Z,100.00
2022-10-18T00:20:07.128Z,100.00
2022-10-18T00:22:36.621Z,100.00
2022-10-18T00:25:03.923Z,100.00
2022-10-18T00:27:31.303Z,100.00
2022-10-18T00:29:58.224Z,100.00
2022-10-18T00:32:25.582Z,100.00
2022-10-18T00:34:52.608Z,100.00
2022-10-18T00:37:19.608Z,100.00
2022-10-18T00:39:46.634Z,100.00
2022-10-18T00:42:18.268Z,100.00
2022-10-18T00:44:45.000Z,100.00
2022-10-18T00:47:14.555Z,100.00
2022-10-18T00:49:44.939Z,100.00
2022-10-18T00:52:17.282Z,100.00
2022-10-18T00:54:46.230Z,100.00
2022-10-18T00:57:14.036Z,100.00
2022-10-18T00:59:42.571Z,100.00
2022-10-18T01:02:10.176Z,100.00
2022-10-18T01:04:37.184Z,100.00
2022-10-18T01:07:29.121Z,100.00
2022-10-18T01:10:17.325Z,100.00
2022-10-18T01:13:08.600Z,100.00
2022-10-18T01:15:50.565Z,100.00
2022-10-18T01:18:53.586Z,100.00
2022-10-18T01:21:29.284Z,100.00
2022-10-18T01:24:15.181Z,100.00
2022-10-18T01:27:15.846Z,100.00
2022-10-18T01:29:54.884Z,100.00
2022-10-18T01:32:29.031Z,100.00
2022-10-18T01:35:04.980Z,100.00
2022-10-18T01:37:35.219Z,100.00
2022-10-18T01:40:06.685Z,100.00
2022-10-18T01:42:34.335Z,100.00
2022-10-18T01:45:03.650Z,100.00
2022-10-18T01:47:31.557Z,100.00
2022-10-18T01:50:00.624Z,100.00
2022-10-18T01:52:27.696Z,100.00
2022-10-18T01:54:55.987Z,100.00
2022-10-18T01:57:28.544Z,100.00
2022-10-18T01:59:58.446Z,100.00
2022-10-18T02:02:40.262Z,100.00
2022-10-18T02:05:25.915Z,100.00
2022-10-18T02:08:23.161Z,100.00
2022-10-18T02:11:07.434Z,100.00
2022-10-18T02:13:42.023Z,100.00
2022-10-18T02:16:35.916Z,100.00
2022-10-18T02:19:09.064Z,100.00
2022-10-18T02:21:38.433Z,100.00
2022-10-18T02:24:06.938Z,100.00
2022-10-18T02:26:33.953Z,100.00
2022-10-18T02:29:00.695Z,100.00
2022-10-18T02:31:35.299Z,100.00
2022-10-18T02:34:22.359Z,100.00
2022-10-18T02:37:00.516Z,100.00
2022-10-18T02:39:31.497Z,100.00
2022-10-18T02:41:59.513Z,100.00
2022-10-18T02:44:26.540Z,100.00
2022-10-18T02:46:53.602Z,100.00
2022-10-18T02:49:20.320Z,100.00
2022-10-18T02:51:47.269Z,100.00
2022-10-18T02:54:14.002Z,100.00
2022-10-18T02:56:40.953Z,100.00
2022-10-18T02:59:08.224Z,100.00
2022-10-18T03:01:36.293Z,100.00
2022-10-18T03:04:04.445Z,100.00
2022-10-18T03:06:32.288Z,100.00
2022-10-18T03:08:59.149Z,100.00
2022-10-18T03:11:26.093Z,100.00
2022-10-18T03:13:52.804Z,100.00
2022-10-18T03:16:19.749Z,100.00
2022-10-18T03:18:46.667Z,100.00
2022-10-18T03:21:13.628Z,100.00
2022-10-18T03:23:42.238Z,100.00
2022-10-18T03:26:09.678Z,100.00
2022-10-18T03:28:36.495Z,100.00
2022-10-18T03:31:04.501Z,100.00
2022-10-18T03:33:32.712Z,100.00
2022-10-18T03:36:00.176Z,100.00
2022-10-18T03:38:27.222Z,100.00
2022-10-18T03:40:54.172Z,100.00
2022-10-18T03:43:20.951Z,100.00
2022-10-18T03:45:47.887Z,100.00
2022-10-18T03:48:14.819Z,100.00
2022-10-18T03:50:42.857Z,100.00
2022-10-18T03:53:10.487Z,100.00
2022-10-18T03:55:37.716Z,100.00
2022-10-18T03:58:04.638Z,100.00
2022-10-18T04:00:31.954Z,100.00
2022-10-18T04:02:58.719Z,100.00
2022-10-18T04:05:28.096Z,100.00
2022-10-18T04:07:55.109Z,100.00
2022-10-18T04:10:22.229Z,100.00
2022-10-18T04:12:48.994Z,100.00
2022-10-18T04:15:16.030Z,100.00
2022-10-18T04:17:42.813Z,100.00
2022-10-18T04:20:10.146Z,100.00
2022-10-18T04:22:36.921Z,100.00
2022-10-18T04:25:05.131Z,100.00
2022-10-18T04:27:32.449Z,100.00
2022-10-18T04:29:59.511Z,100.00
2022-10-18T04:32:29.483Z,100.00
2022-10-18T04:34:59.144Z,100.00
2022-10-18T04:37:25.939Z,100.00
2022-10-18T04:39:53.798Z,100.00
2022-10-18T04:42:24.343Z,100.00
2022-10-18T04:44:51.347Z,100.00
2022-10-18T04:47:18.277Z,100.00
2022-10-18T04:49:45.364Z,100.00
2022-10-18T04:52:12.151Z,100.00
2022-10-18T04:54:39.102Z,100.00
2022-10-18T04:57:05.908Z,100.00
2022-10-18T04:59:32.919Z,100.00
2022-10-18T05:01:59.833Z,100.00
2022-10-18T05:04:26.858Z,100.00
2022-10-18T05:06:53.623Z,100.00
2022-10-18T05:09:24.516Z,100.00
2022-10-18T05:11:51.364Z,100.00
2022-10-18T05:14:18.334Z,100.00
2022-10-18T05:16:45.093Z,100.00
2022-10-18T05:19:12.156Z,100.00
2022-10-18T05:21:38.887Z,100.00
2022-10-18T05:24:06.134Z,100.00
2022-10-18T05:26:33.081Z,100.00
2022-10-18T05:29:00.147Z,100.00
2022-10-18T05:31:27.012Z,100.00
2022-10-18T05:33:53.922Z,100.00
2022-10-18T05:36:20.755Z,100.00
2022-10-18T05:38:48.424Z,100.00
2022-10-18T05:41:15.168Z,100.00
2022-10-18T05:43:42.086Z,100.00
2022-10-18T05:46:14.763Z,100.00
2022-10-18T05:48:44.320Z,100.00
2022-10-18T05:51:11.343Z,100.00
2022-10-18T05:53:38.491Z,100.00
2022-10-18T05:56:06.700Z,100.00
2022-10-18T05:58:34.107Z,100.00
2022-10-18T06:01:05.475Z,100.00
2022-10-18T06:03:33.326Z,100.00
2022-10-18T06:06:00.791Z,100.00
2022-10-18T06:08:27.862Z,100.00
2022-10-18T06:10:54.742Z,100.00
2022-10-18T06:13:21.714Z,100.00
2022-10-18T06:15:48.475Z,100.00
2022-10-18T06:18:15.600Z,100.00
2022-10-18T06:20:42.380Z,100.00
2022-10-18T06:23:09.335Z,100.00
2022-10-18T06:25:36.303Z,100.00
2022-10-18T06:28:07.830Z,100.00
2022-10-18T06:30:37.138Z,100.00
2022-10-18T06:33:04.191Z,100.00
2022-10-18T06:35:30.964Z,100.00
2022-10-18T06:37:57.929Z,100.00
2022-10-18T06:40:24.833Z,100.00
2022-10-18T06:43:00.623Z,100.00
2022-10-18T06:45:33.447Z,100.00
2022-10-18T06:48:00.396Z,100.00
2022-10-18T06:50:27.102Z,100.00
2022-10-18T06:52:56.901Z,100.00
2022-10-18T06:55:23.730Z,100.00
2022-10-18T06:57:50.820Z,100.00
2022-10-18T07:00:17.560Z,100.00
2022-10-18T07:02:44.465Z,100.00
2022-10-18T07:05:11.632Z,100.00
2022-10-18T07:07:39.517Z,100.00
2022-10-18T07:10:06.969Z,100.00
2022-10-18T07:12:34.525Z,100.00
2022-10-18T07:15:03.486Z,100.00
2022-10-18T07:17:34.073Z,100.00
2022-10-18T07:20:00.987Z,100.00
2022-10-18T07:22:30.231Z,100.00
2022-10-18T07:24:57.216Z,100.00
2022-10-18T07:27:24.169Z,100.00
2022-10-18T07:29:50.994Z,100.00
2022-10-18T07:32:17.957Z,99.70
2022-10-18T07:34:44.671Z,98.12
2022-10-18T07:37:11.653Z,96.31
2022-10-18T07:39:38.398Z,96.28
2022-10-18T07:42:05.312Z,92.26
2022-10-18T07:44:32.086Z,85.96
2022-10-18T07:46:59.021Z,89.04
2022-10-18T07:49:25.771Z,87.69
2022-10-18T07:51:53.219Z,83.20
2022-10-18T07:54:19.998Z,82.76
2022-10-18T07:56:47.163Z,81.50
2022-10-18T07:59:19.087Z,84.01
2022-10-18T08:01:52.985Z,79.04
2022-10-18T08:04:21.629Z,79.35
2022-10-18T08:06:48.746Z,77.57
2022-10-18T08:09:15.509Z,76.79
2022-10-18T08:11:42.483Z,75.44
2022-10-18T08:14:09.213Z,71.84
2022-10-18T08:16:36.143Z,72.71
2022-10-18T08:19:02.875Z,72.65
2022-10-18T08:21:29.863Z,71.32
2022-10-18T08:23:56.620Z,67.46
2022-10-18T08:26:23.981Z,66.03
2022-10-18T08:28:58.468Z,67.69
2022-10-18T08:31:36.782Z,66.96
2022-10-18T08:34:03.488Z,68.07
2022-10-18T08:36:30.488Z,66.45
2022-10-18T08:38:57.204Z,67.86
2022-10-18T08:41:51.716Z,66.15
2022-10-18T08:44:36.313Z,64.29
2022-10-18T08:47:11.826Z,63.96
2022-10-18T08:49:55.668Z,57.77
2022-10-18T08:55:39.559Z,53.26
2022-10-18T08:58:26.701Z,51.76
2022-10-18T09:01:20.606Z,51.86
2022-10-18T09:04:06.128Z,53.67
2022-10-18T09:06:40.426Z,52.70
2022-10-18T09:09:25.559Z,49.62
2022-10-18T09:12:26.913Z,50.85
2022-10-18T09:15:04.210Z,48.05
2022-10-18T09:17:44.643Z,47.83
2022-10-18T09:20:23.832Z,46.35
2022-10-18T09:23:00.193Z,45.99
2022-10-18T09:25:36.000Z,45.10
2022-10-18T09:28:30.747Z,46.23
2022-10-18T09:31:13.317Z,44.56
2022-10-18T09:33:52.328Z,43.96
2022-10-18T09:36:33.607Z,44.35
2022-10-18T09:39:09.649Z,44.12
2022-10-18T09:41:54.336Z,45.11
2022-10-18T09:44:33.040Z,42.62
2022-10-18T09:47:16.906Z,42.99
2022-10-18T09:49:47.468Z,43.15
2022-10-18T09:52:21.407Z,44.76
2022-10-18T09:54:56.057Z,42.58
2022-10-18T09:57:44.814Z,42.64
2022-10-18T10:00:24.878Z,42.25
2022-10-18T10:02:51.903Z,40.66
2022-10-18T10:05:19.775Z,41.55
2022-10-18T10:07:49.216Z,41.38
2022-10-18T10:10:24.461Z,41.48
2022-10-18T10:13:16.073Z,40.04
2022-10-18T10:15:54.995Z,40.17
2022-10-18T10:18:25.245Z,39.01
2022-10-18T10:20:53.453Z,39.28
2022-10-18T10:23:26.818Z,39.65
2022-10-18T10:26:20.209Z,39.11
2022-10-18T10:28:49.010Z,38.93
2022-10-18T10:31:18.932Z,38.70
2022-10-18T10:33:48.119Z,36.98
2022-10-18T10:36:21.652Z,37.07
2022-10-18T10:39:19.190Z,36.73
2022-10-18T10:41:54.512Z,36.44
2022-10-18T10:44:28.807Z,36.32
2022-10-18T10:46:55.886Z,36.72
2022-10-18T10:49:39.699Z,35.75
2022-10-18T10:52:08.842Z,35.00
2022-10-18T10:54:50.319Z,34.17
2022-10-18T10:57:25.921Z,35.08
2022-10-18T10:59:55.411Z,35.06
2022-10-18T11:02:30.213Z,34.87
2022-10-18T11:05:25.566Z,34.81
2022-10-18T11:07:58.570Z,34.62
2022-10-18T11:10:30.988Z,34.63
2022-10-18T11:13:31.923Z,34.15
2022-10-18T11:16:06.963Z,34.10
2022-10-18T11:18:36.699Z,35.00
2022-10-18T11:21:18.852Z,33.80
2022-10-18T11:23:46.255Z,33.87
2022-10-18T11:26:13.121Z,33.43
2022-10-18T11:29:07.103Z,33.93
2022-10-18T11:31:55.943Z,34.04
2022-10-18T11:34:43.851Z,33.49
2022-10-18T11:37:52.012Z,33.91
2022-10-18T11:40:45.970Z,34.06
2022-10-18T11:43:57.176Z,34.21
2022-10-18T11:46:32.747Z,34.71
2022-10-18T11:49:50.660Z,35.25
2022-10-18T11:52:45.671Z,35.26
2022-10-18T11:55:56.124Z,35.31
2022-10-18T11:59:01.694Z,35.58
2022-10-18T12:02:13.112Z,34.52
2022-10-18T12:04:58.529Z,33.85
2022-10-18T12:07:41.613Z,35.47
2022-10-18T12:10:19.492Z,35.97
2022-10-18T12:13:02.135Z,37.51
2022-10-18T12:15:33.649Z,38.32
2022-10-18T12:18:06.409Z,38.76
2022-10-18T12:20:43.578Z,38.07
2022-10-18T12:23:15.819Z,38.24
2022-10-18T12:25:47.823Z,39.92
2022-10-18T12:28:32.865Z,39.00
2022-10-18T12:31:24.430Z,38.84
2022-10-18T12:33:56.734Z,40.53
2022-10-18T12:36:48.163Z,39.78
2022-10-18T12:39:37.565Z,41.31
2022-10-18T12:42:29.678Z,38.86
2022-10-18T12:45:25.798Z,38.89
2022-10-18T12:47:52.983Z,39.66
2022-10-18T12:50:28.371Z,39.62
2022-10-18T12:53:26.654Z,39.84
2022-10-18T12:55:54.870Z,39.97
2022-10-18T12:58:31.541Z,40.65
2022-10-18T13:01:07.092Z,40.32
2022-10-18T13:03:50.978Z,39.51
2022-10-18T13:06:17.945Z,39.61
2022-10-18T13:08:46.070Z,39.61
2022-10-18T13:11:13.022Z,39.44
2022-10-18T13:14:10.944Z,39.87
2022-10-18T13:16:44.528Z,38.81
2022-10-18T13:19:35.580Z,38.36
2022-10-18T13:22:56.746Z,37.87
2022-10-18T13:25:29.296Z,37.46
2022-10-18T13:28:14.785Z,38.33
2022-10-18T13:30:55.847Z,37.65
2022-10-18T13:33:39.071Z,36.59
2022-10-18T13:36:22.709Z,37.35
2022-10-18T13:38:50.498Z,36.94
2022-10-18T13:41:26.863Z,36.48
2022-10-18T13:44:24.393Z,37.55
2022-10-18T13:46:51.493Z,37.00
2022-10-18T13:49:40.391Z,37.21
2022-10-18T13:52:28.359Z,37.11
2022-10-18T13:55:03.200Z,38.05
2022-10-18T13:57:51.029Z,37.18
2022-10-18T14:00:49.153Z,36.78
2022-10-18T14:03:57.995Z,37.21
2022-10-18T14:06:41.741Z,37.19
2022-10-18T14:09:40.287Z,36.92
2022-10-18T14:12:44.826Z,37.94
2022-10-18T14:15:27.385Z,38.33
2022-10-18T14:18:18.875Z,37.51
2022-10-18T14:21:12.250Z,37.67
2022-10-18T14:23:44.749Z,37.90
2022-10-18T14:26:15.385Z,37.96
2022-10-18T14:28:59.137Z,37.65
2022-10-18T14:31:27.081Z,37.66
2022-10-18T14:33:58.341Z,37.60
2022-10-18T14:36:29.374Z,37.93
2022-10-18T14:38:56.296Z,37.83
2022-10-18T14:41:28.151Z,38.80
2022-10-18T14:44:21.126Z,38.56
2022-10-18T14:46:58.236Z,38.89
2022-10-18T14:49:25.710Z,39.09
2022-10-18T14:51:56.246Z,39.59
2022-10-18T14:54:32.826Z,39.18
2022-10-18T14:57:00.683Z,39.14
2022-10-18T14:59:30.693Z,39.79
2022-10-18T15:02:05.202Z,39.84
2022-10-18T15:04:35.228Z,39.43
2022-10-18T15:07:05.035Z,40.42
2022-10-18T15:09:34.139Z,40.61
2022-10-18T15:12:03.424Z,41.18
2022-10-18T15:14:30.829Z,41.19
2022-10-18T15:17:07.461Z,42.15
2022-10-18T15:19:39.364Z,42.00
2022-10-18T15:25:04.240Z,42.20
2022-10-18T15:27:37.998Z,42.39
2022-10-18T15:30:15.590Z,43.52
2022-10-18T15:32:52.125Z,45.64
2022-10-18T15:35:26.523Z,45.00
2022-10-18T15:37:54.968Z,45.99
2022-10-18T15:40:21.852Z,47.63
2022-10-18T15:42:53.593Z,48.25
2022-10-18T15:45:27.521Z,48.22
2022-10-18T15:48:12.298Z,50.34
2022-10-18T15:50:42.698Z,50.26
2022-10-18T15:53:22.620Z,52.35
2022-10-18T15:56:02.938Z,53.47
2022-10-18T15:58:39.574Z,54.82
2022-10-18T16:01:21.186Z,56.67
2022-10-18T16:03:49.633Z,58.08
2022-10-18T16:06:18.374Z,57.66
2022-10-18T16:08:48.596Z,57.29
2022-10-18T16:11:25.488Z,59.25
2022-10-18T16:13:55.263Z,60.81
2022-10-18T16:16:26.916Z,62.31
2022-10-18T16:18:53.994Z,62.19
2022-10-18T16:21:26.478Z,62.70
2022-10-18T16:23:53.619Z,64.07
2022-10-18T16:26:22.186Z,64.81
2022-10-18T16:28:49.960Z,65.04
2022-10-18T16:31:22.788Z,65.45
2022-10-18T16:33:50.579Z,67.11
2022-10-18T16:36:20.309Z,67.40
2022-10-18T16:38:48.022Z,66.64
2022-10-18T16:41:15.988Z,67.09
2022-10-18T16:43:44.756Z,68.27
2022-10-18T16:46:28.333Z,69.05
2022-10-18T16:48:55.528Z,71.70
2022-10-18T16:51:22.860Z,72.82
2022-10-18T16:53:49.884Z,72.43
2022-10-18T16:56:19.901Z,72.79
2022-10-18T16:58:47.145Z,73.37
2022-10-18T17:01:16.844Z,72.84
2022-10-18T17:03:43.796Z,73.31
2022-10-18T17:06:17.352Z,74.15
2022-10-18T17:08:44.789Z,75.08
2022-10-18T17:11:13.261Z,73.99
2022-10-18T17:13:40.471Z,75.26
2022-10-18T17:16:15.778Z,76.91
2022-10-18T17:18:44.069Z,76.36
2022-10-18T17:21:11.257Z,78.64
2022-10-18T17:23:39.003Z,78.41
2022-10-18T17:26:27.728Z,78.83
2022-10-18T17:29:00.739Z,80.09
2022-10-18T17:31:29.488Z,79.08
2022-10-18T17:33:58.348Z,79.51
2022-10-18T17:36:25.482Z,80.19
2022-10-18T17:38:53.367Z,80.56
2022-10-18T17:41:21.377Z,81.58
2022-10-18T17:43:48.585Z,81.99
2022-10-18T17:46:17.760Z,82.12
2022-10-18T17:48:44.667Z,81.98
2022-10-18T17:51:14.201Z,82.80
2022-10-18T17:53:40.973Z,82.90
2022-10-18T17:56:10.956Z,84.50
2022-10-18T17:58:37.821Z,85.26
2022-10-18T18:01:17.905Z,85.48
2022-10-18T18:03:47.572Z,84.98
2022-10-18T18:06:22.451Z,86.25
2022-10-18T18:08:50.428Z,86.44
2022-10-18T18:11:18.052Z,86.81
2022-10-18T18:13:44.888Z,86.58
2022-10-18T18:16:20.194Z,87.36
2022-10-18T18:18:49.887Z,87.51
2022-10-18T18:21:17.506Z,87.84
2022-10-18T18:23:44.625Z,88.08
2022-10-18T18:26:11.916Z,89.12
2022-10-18T18:28:39.117Z,89.14
2022-10-18T18:31:11.440Z,87.74
2022-10-18T18:33:38.527Z,89.54
2022-10-18T18:36:08.909Z,90.33
2022-10-18T18:38:46.743Z,90.45
2022-10-18T18:41:19.246Z,89.92
2022-10-18T18:43:54.035Z,90.88
2022-10-18T18:46:22.375Z,91.00
2022-10-18T18:48:49.436Z,91.21
2022-10-18T18:51:19.036Z,90.83
2022-10-18T18:53:47.064Z,91.82
2022-10-18T18:58:52.979Z,92.04
2022-10-18T19:01:35.238Z,90.63
2022-10-18T19:04:02.462Z,92.03
2022-10-18T19:06:32.608Z,92.60
2022-10-18T19:09:04.822Z,92.67
2022-10-18T19:11:35.524Z,93.25
2022-10-18T19:14:03.791Z,93.66
2022-10-18T19:16:39.499Z,94.70
2022-10-18T19:19:06.486Z,93.47
2022-10-18T19:21:36.021Z,93.72
2022-10-18T19:24:03.754Z,94.90
2022-10-18T19:26:32.493Z,94.75
2022-10-18T19:29:06.928Z,94.88
2022-10-18T19:31:35.026Z,94.72
2022-10-18T19:34:05.148Z,95.44
2022-10-18T19:36:35.406Z,96.57
2022-10-18T19:39:03.478Z,97.39
2022-10-18T19:41:33.348Z,97.23
2022-10-18T19:44:00.188Z,97.93
2022-10-18T19:46:27.129Z,98.83
2022-10-18T19:48:54.338Z,98.03
2022-10-18T19:51:26.873Z,99.08
2022-10-18T19:53:56.481Z,98.21
2022-10-18T19:56:27.920Z,98.41
2022-10-18T19:58:59.092Z,99.64
2022-10-18T20:01:28.465Z,99.29
2022-10-18T20:03:57.959Z,99.19
2022-10-18T20:06:25.437Z,99.82
2022-10-18T20:08:52.403Z,99.18
2022-10-18T20:11:22.731Z,99.28
2022-10-18T20:13:50.177Z,99.95
2022-10-18T20:16:23.053Z,100.00
2022-10-18T20:19:00.946Z,100.00
2022-10-18T20:21:35.584Z,100.00
2022-10-18T20:24:03.948Z,100.00
2022-10-18T20:26:30.988Z,100.00
2022-10-18T20:28:59.681Z,100.00
2022-10-18T20:31:32.154Z,100.00
2022-10-18T20:34:00.897Z,100.00
2022-10-18T20:36:29.924Z,100.00
2022-10-18T20:38:56.827Z,100.00
2022-10-18T20:41:32.635Z,100.00
2022-10-18T20:44:02.339Z,100.00
2022-10-18T20:46:34.398Z,100.00
2022-10-18T20:49:01.680Z,100.00
2022-10-18T20:51:28.868Z,100.00
2022-10-18T20:53:55.846Z,100.00
2022-10-18T20:56:26.687Z,100.00
2022-10-18T20:58:56.383Z,100.00
2022-10-18T21:01:31.776Z,100.00
2022-10-18T21:04:01.322Z,100.00
2022-10-18T21:06:30.873Z,100.00
2022-10-18T21:09:00.019Z,100.00
2022-10-18T21:11:28.753Z,100.00
2022-10-18T21:13:59.559Z,100.00
2022-10-18T21:16:27.235Z,100.00
2022-10-18T21:18:54.077Z,100.00
2022-10-18T21:21:24.077Z,100.00
2022-10-18T21:23:52.159Z,100.00
2022-10-18T21:26:26.819Z,100.00
2022-10-18T21:28:55.263Z,100.00
2022-10-18T21:31:24.463Z,100.00
2022-10-18T21:33:56.817Z,100.00
2022-10-18T21:36:25.044Z,100.00
2022-10-18T21:38:51.921Z,100.00
2022-10-18T21:41:20.560Z,100.00
2022-10-18T21:43:49.784Z,100.00
2022-10-18T21:46:17.973Z,100.00
2022-10-18T21:48:46.839Z,100.00
2022-10-18T21:51:15.869Z,100.00
2022-10-18T21:53:46.075Z,100.00
2022-10-18T21:56:16.032Z,100.00
2022-10-18T21:58:43.428Z,100.00
2022-10-18T22:01:13.558Z,100.00
2022-10-18T22:03:41.105Z,100.00
2022-10-18T22:06:14.247Z,100.00
2022-10-18T22:08:42.609Z,100.00
2022-10-18T22:11:09.965Z,100.00
2022-10-18T22:13:36.716Z,100.00
2022-10-18T22:16:05.348Z,100.00
2022-10-18T22:18:32.992Z,100.00
2022-10-18T22:21:06.517Z,100.00
2022-10-18T22:23:35.423Z,100.00
2022-10-18T22:26:13.543Z,100.00
2022-10-18T22:28:42.159Z,100.00
2022-10-18T22:31:21.314Z,100.00
2022-10-18T22:33:53.665Z,100.00
2022-10-18T22:36:20.875Z,100.00
2022-10-18T22:38:47.618Z,100.00
2022-10-18T22:41:14.696Z,100.00
2022-10-18T22:43:41.724Z,100.00
2022-10-18T22:46:11.553Z,100.00
2022-10-18T22:48:38.712Z,100.00
2022-10-18T22:51:05.881Z,100.00
2022-10-18T22:53:33.603Z,100.00
2022-10-18T22:56:00.752Z,100.00
2022-10-18T22:58:27.775Z,100.00
2022-10-18T23:01:13.132Z,100.00
2022-10-18T23:03:40.637Z,100.00
2022-10-18T23:06:22.691Z,100.00
2022-10-18T23:08:49.985Z,100.00
2022-10-18T23:11:17.851Z,100.00
2022-10-18T23:13:44.845Z,100.00
2022-10-18T23:16:12.052Z,100.00
2022-10-18T23:21:10.097Z,100.00
2022-10-18T23:23:39.491Z,100.00
2022-10-18T23:26:12.218Z,100.00
2022-10-18T23:28:41.387Z,100.00
2022-10-18T23:31:30.745Z,100.00
2022-10-18T23:34:01.077Z,100.00
2022-10-18T23:36:28.538Z,100.00
2022-10-18T23:38:55.784Z,100.00
2022-10-18T23:41:23.278Z,100.00
2022-10-18T23:43:50.095Z,100.00
2022-10-18T23:46:18.341Z,100.00
2022-10-18T23:48:45.996Z,100.00
2022-10-18T23:51:12.966Z,100.00
2022-10-18T23:53:40.387Z,100.00
2022-10-18T23:56:11.437Z,100.00
2022-10-18T23:58:39.234Z,100.00
